createdAt,value
2023-04-29T00:00:47.496Z,990.59
2023-04-29T00:01:47.478Z,990.56
2023-04-29T00:02:47.560Z,990.55
2023-04-29T00:03:47.488Z,990.56
2023-04-29T00:04:47.507Z,990.57
2023-04-29T00:05:47.319Z,990.55
2023-04-29T00:06:47.106Z,990.59
2023-04-29T00:07:47.030Z,990.58
2023-04-29T00:08:47.017Z,990.52
2023-04-29T00:09:46.904Z,990.54
2023-04-29T00:10:46.893Z,990.57
2023-04-29T00:11:46.780Z,990.51
2023-04-29T00:12:46.769Z,990.56
2023-04-29T00:13:46.739Z,990.54
2023-04-29T00:14:46.638Z,990.51
2023-04-29T00:15:46.581Z,990.52
2023-04-29T00:16:46.535Z,990.50
2023-04-29T00:17:46.469Z,990.50
2023-04-29T00:18:46.352Z,990.52
2023-04-29T00:19:46.330Z,990.53
2023-04-29T00:21:07.210Z,990.52
2023-04-29T00:21:46.202Z,990.56
2023-04-29T00:22:46.164Z,990.56
2023-04-29T00:23:46.051Z,990.56
2023-04-29T00:24:45.986Z,990.59
2023-04-29T00:25:45.892Z,990.62
2023-04-29T00:26:45.882Z,990.62
2023-04-29T00:27:45.772Z,990.61
2023-04-29T00:28:45.771Z,990.57
2023-04-29T00:29:45.674Z,990.59
2023-04-29T00:30:45.627Z,990.59
2023-04-29T00:31:45.546Z,990.61
2023-04-29T00:32:45.510Z,990.58
2023-04-29T00:33:45.425Z,990.60
2023-04-29T00:34:45.357Z,990.58
2023-04-29T00:35:45.326Z,990.65
2023-04-29T00:36:45.241Z,990.63
2023-04-29T00:37:45.184Z,990.58
2023-04-29T00:38:45.148Z,990.63
2023-04-29T00:39:45.078Z,990.67
2023-04-29T00:40:44.965Z,990.63
2023-04-29T00:41:44.918Z,990.63
2023-04-29T00:42:44.887Z,990.64
2023-04-29T00:43:44.800Z,990.68
2023-04-29T00:44:44.739Z,990.71
2023-04-29T00:45:44.680Z,990.70
2023-04-29T00:46:44.739Z,990.68
2023-04-29T00:47:44.583Z,990.72
2023-04-29T00:48:44.454Z,990.77
2023-04-29T00:49:44.399Z,990.78
2023-04-29T00:50:44.355Z,990.80
2023-04-29T00:51:44.291Z,990.74
2023-04-29T00:52:44.269Z,990.77
2023-04-29T00:53:44.992Z,990.77
2023-04-29T00:54:44.112Z,990.84
2023-04-29T00:55:44.071Z,990.85
2023-04-29T00:57:53.198Z,990.86
2023-04-29T00:58:54.670Z,990.88
2023-04-29T00:59:54.361Z,990.82
2023-04-29T01:00:55.936Z,990.84
2023-04-29T01:01:54.044Z,990.86
2023-04-29T01:02:53.977Z,990.93
2023-04-29T01:03:54.046Z,990.97
2023-04-29T01:04:53.830Z,990.96
2023-04-29T01:05:53.691Z,991.00
2023-04-29T01:06:53.643Z,990.98
2023-04-29T01:07:53.589Z,991.00
2023-04-29T01:08:53.518Z,991.04
2023-04-29T01:09:53.751Z,991.09
2023-04-29T01:10:53.368Z,991.09
2023-04-29T01:11:53.296Z,991.11
2023-04-29T01:12:53.244Z,991.10
2023-04-29T01:13:53.186Z,991.03
2023-04-29T01:15:10.728Z,991.06
2023-04-29T01:15:53.087Z,991.04
2023-04-29T01:16:52.967Z,991.01
2023-04-29T01:17:52.959Z,990.98
2023-04-29T01:18:52.841Z,991.02
2023-04-29T01:19:52.981Z,991.07
2023-04-29T01:20:52.746Z,991.13
2023-04-29T01:21:52.705Z,991.09
2023-04-29T01:22:52.634Z,991.10
2023-04-29T01:23:52.582Z,991.13
2023-04-29T01:24:52.488Z,991.15
2023-04-29T01:25:52.399Z,991.14
2023-04-29T01:26:52.367Z,991.16
2023-04-29T01:27:52.328Z,991.17
2023-04-29T01:28:52.242Z,991.19
2023-04-29T01:29:52.384Z,991.17
2023-04-29T01:30:52.102Z,991.19
2023-04-29T01:31:52.089Z,991.17
2023-04-29T01:33:13.004Z,991.20
2023-04-29T01:33:51.927Z,991.22
2023-04-29T01:34:51.857Z,991.21
2023-04-29T01:35:51.793Z,991.16
2023-04-29T01:36:51.699Z,991.18
2023-04-29T01:37:51.682Z,991.22
2023-04-29T01:38:52.051Z,991.18
2023-04-29T01:39:51.763Z,991.19
2023-04-29T01:40:51.482Z,991.17
2023-04-29T01:41:51.415Z,991.14
2023-04-29T01:42:51.325Z,991.17
2023-04-29T01:43:51.279Z,991.14
2023-04-29T01:44:51.230Z,991.19
2023-04-29T01:45:51.163Z,991.10
2023-04-29T01:46:51.110Z,991.16
2023-04-29T01:47:51.062Z,991.15
2023-04-29T01:48:50.996Z,991.13
2023-04-29T01:49:51.175Z,991.15
2023-04-29T01:50:51.168Z,991.18
2023-04-29T01:51:50.807Z,991.22
2023-04-29T01:52:50.727Z,991.18
2023-04-29T01:53:50.631Z,991.20
2023-04-29T01:54:50.569Z,991.22
2023-04-29T01:55:51.132Z,991.22
2023-04-29T01:56:50.507Z,991.21
2023-04-29T01:57:50.408Z,991.18
2023-04-29T01:58:50.365Z,991.23
2023-04-29T01:59:50.394Z,991.27
2023-04-29T02:00:50.225Z,991.28
2023-04-29T02:01:50.126Z,991.27
2023-04-29T02:02:50.179Z,991.29
2023-04-29T02:03:50.186Z,991.32
2023-04-29T02:04:50.130Z,991.30
2023-04-29T02:05:49.897Z,991.32
2023-04-29T02:06:49.806Z,991.36
2023-04-29T02:07:49.751Z,991.28
2023-04-29T02:09:27.096Z,991.33
2023-04-29T02:09:49.650Z,991.33
2023-04-29T02:10:49.590Z,991.35
2023-04-29T02:11:49.530Z,991.37
2023-04-29T02:12:49.432Z,991.35
2023-04-29T02:13:49.423Z,991.40
2023-04-29T02:14:49.314Z,991.40
2023-04-29T02:15:49.255Z,991.38
2023-04-29T02:16:49.238Z,991.39
2023-04-29T02:17:49.192Z,991.42
2023-04-29T02:18:49.974Z,991.46
2023-04-29T02:19:49.030Z,991.47
2023-04-29T02:20:48.965Z,991.48
2023-04-29T02:21:48.894Z,991.49
2023-04-29T02:22:48.798Z,991.48
2023-04-29T02:23:48.767Z,991.49
2023-04-29T02:24:48.673Z,991.51
2023-04-29T02:25:48.621Z,991.48
2023-04-29T02:26:48.591Z,991.46
2023-04-29T02:27:48.517Z,991.45
2023-04-29T02:28:48.451Z,991.46
2023-04-29T02:29:48.414Z,991.44
2023-04-29T02:30:48.324Z,991.40
2023-04-29T02:31:48.257Z,991.47
2023-04-29T02:32:48.287Z,991.47
2023-04-29T02:33:48.132Z,991.40
2023-04-29T02:34:48.049Z,991.43
2023-04-29T02:35:48.014Z,991.48
2023-04-29T02:36:47.920Z,991.46
2023-04-29T02:37:47.911Z,991.42
2023-04-29T02:38:47.836Z,991.44
2023-04-29T02:39:47.791Z,991.45
2023-04-29T02:40:47.699Z,991.48
2023-04-29T02:41:47.606Z,991.45
2023-04-29T02:42:47.569Z,991.52
2023-04-29T02:43:47.477Z,991.50
2023-04-29T02:44:47.508Z,991.50
2023-04-29T02:45:47.420Z,991.50
2023-04-29T02:46:47.319Z,991.51
2023-04-29T02:47:47.306Z,991.54
2023-04-29T02:48:47.182Z,991.55
2023-04-29T02:49:47.163Z,991.55
2023-04-29T02:50:47.079Z,991.51
2023-04-29T02:51:47.029Z,991.51
2023-04-29T02:52:46.968Z,991.52
2023-04-29T02:53:46.882Z,991.53
2023-04-29T02:54:46.849Z,991.54
2023-04-29T02:55:46.780Z,991.56
2023-04-29T02:57:04.691Z,991.54
2023-04-29T02:57:46.651Z,991.50
2023-04-29T02:58:46.551Z,991.59
2023-04-29T02:59:46.498Z,991.63
2023-04-29T03:00:46.438Z,991.63
2023-04-29T03:01:46.449Z,991.60
2023-04-29T03:03:07.500Z,991.57
2023-04-29T03:03:46.292Z,991.58
2023-04-29T03:04:46.191Z,991.60
2023-04-29T03:05:46.155Z,991.57
2023-04-29T03:06:46.057Z,991.60
2023-04-29T03:07:45.990Z,991.55
2023-04-29T03:08:45.962Z,991.53
2023-04-29T03:09:45.837Z,991.52
2023-04-29T03:10:45.834Z,991.52
2023-04-29T03:11:45.741Z,991.54
2023-04-29T03:12:45.634Z,991.51
2023-04-29T03:13:45.531Z,991.46
2023-04-29T03:14:45.505Z,991.48
2023-04-29T03:15:45.471Z,991.43
2023-04-29T03:16:45.409Z,991.51
2023-04-29T03:17:45.350Z,991.51
2023-04-29T03:18:45.309Z,991.49
2023-04-29T03:19:45.257Z,991.50
2023-04-29T03:20:45.160Z,991.51
2023-04-29T03:21:45.081Z,991.50
2023-04-29T03:22:45.072Z,991.52
2023-04-29T03:23:45.005Z,991.53
2023-04-29T03:24:44.945Z,991.54
2023-04-29T03:25:44.893Z,991.55
2023-04-29T03:26:44.788Z,991.59
2023-04-29T03:27:44.757Z,991.58
2023-04-29T03:28:44.642Z,991.62
2023-04-29T03:29:44.598Z,991.60
2023-04-29T03:30:44.517Z,991.60
2023-04-29T03:31:44.530Z,991.62
2023-04-29T03:32:44.445Z,991.59
2023-04-29T03:33:44.322Z,991.66
2023-04-29T03:34:44.256Z,991.65
2023-04-29T03:35:44.205Z,991.61
2023-04-29T03:36:44.099Z,991.64
2023-04-29T03:37:44.039Z,991.66
2023-04-29T03:38:44.008Z,991.66
2023-04-29T03:39:43.912Z,991.65
2023-04-29T03:40:43.847Z,991.67
2023-04-29T03:41:43.788Z,991.64
2023-04-29T03:42:43.727Z,991.68
2023-04-29T03:43:43.658Z,991.69
2023-04-29T03:44:44.059Z,991.67
2023-04-29T03:45:43.529Z,991.66
2023-04-29T03:46:43.514Z,991.69
2023-04-29T03:47:43.418Z,991.66
2023-04-29T03:48:43.315Z,991.69
2023-04-29T03:49:43.263Z,991.72
2023-04-29T03:50:43.255Z,991.71
2023-04-29T03:51:43.120Z,991.75
2023-04-29T03:52:43.089Z,991.74
2023-04-29T03:53:43.051Z,991.74
2023-04-29T03:54:42.988Z,991.78
2023-04-29T03:55:42.902Z,991.75
2023-04-29T03:56:42.848Z,991.74
2023-04-29T03:57:42.855Z,991.75
2023-04-29T03:58:42.679Z,991.79
2023-04-29T03:59:42.621Z,991.73
2023-04-29T04:00:42.586Z,991.72
2023-04-29T04:01:42.566Z,991.75
2023-04-29T04:05:21.779Z,991.73
2023-04-29T04:06:01.722Z,991.76
2023-04-29T04:07:01.667Z,991.78
2023-04-29T04:08:01.593Z,991.80
2023-04-29T04:09:01.514Z,991.83
2023-04-29T04:10:01.531Z,991.83
2023-04-29T04:11:02.158Z,991.87
2023-04-29T04:12:01.370Z,991.85
2023-04-29T04:13:01.308Z,991.91
2023-04-29T04:14:01.830Z,991.91
2023-04-29T04:15:01.170Z,991.91
2023-04-29T04:16:01.095Z,991.92
2023-04-29T04:17:18.474Z,991.97
2023-04-29T04:18:01.093Z,991.98
2023-04-29T04:19:00.895Z,991.99
2023-04-29T04:20:00.855Z,991.98
2023-04-29T04:21:00.851Z,992.03
2023-04-29T04:22:00.680Z,992.06
2023-04-29T04:23:00.624Z,992.07
2023-04-29T04:24:00.576Z,992.08
2023-04-29T04:25:00.551Z,992.09
2023-04-29T04:26:00.456Z,992.12
2023-04-29T04:27:00.396Z,992.14
2023-04-29T04:28:00.306Z,992.18
2023-04-29T04:29:00.304Z,992.21
2023-04-29T04:30:00.274Z,992.22
2023-04-29T04:31:00.182Z,992.24
2023-04-29T04:32:00.160Z,992.29
2023-04-29T04:33:00.116Z,992.26
2023-04-29T04:34:00.024Z,992.30
2023-04-29T04:34:59.875Z,992.29
2023-04-29T04:35:59.834Z,992.31
2023-04-29T04:36:59.794Z,992.37
2023-04-29T04:37:59.709Z,992.32
2023-04-29T04:38:59.638Z,992.36
2023-04-29T04:39:59.577Z,992.33
2023-04-29T04:40:59.522Z,992.36
2023-04-29T04:41:59.513Z,992.35
2023-04-29T04:42:59.358Z,992.35
2023-04-29T04:43:59.325Z,992.38
2023-04-29T04:44:59.294Z,992.37
2023-04-29T04:45:59.284Z,992.38
2023-04-29T04:46:59.139Z,992.41
2023-04-29T04:47:59.135Z,992.44
2023-04-29T04:48:58.987Z,992.46
2023-04-29T04:49:58.915Z,992.47
2023-04-29T04:50:58.917Z,992.48
2023-04-29T04:51:58.828Z,992.48
2023-04-29T04:53:16.171Z,992.51
2023-04-29T04:53:58.695Z,992.54
2023-04-29T04:54:58.629Z,992.54
2023-04-29T04:55:58.540Z,992.50
2023-04-29T04:56:58.538Z,992.55
2023-04-29T04:57:58.448Z,992.51
2023-04-29T04:58:58.439Z,992.56
2023-04-29T04:59:58.313Z,992.52
2023-04-29T05:00:58.334Z,992.57
2023-04-29T05:01:58.229Z,992.52
2023-04-29T05:02:58.251Z,992.55
2023-04-29T05:03:58.163Z,992.57
2023-04-29T05:04:58.009Z,992.57
2023-04-29T05:05:57.935Z,992.58
2023-04-29T05:06:57.869Z,992.57
2023-04-29T05:07:57.785Z,992.60
2023-04-29T05:08:57.752Z,992.60
2023-04-29T05:09:58.579Z,992.59
2023-04-29T05:10:57.643Z,992.58
2023-04-29T05:11:57.560Z,992.58
2023-04-29T05:12:57.495Z,992.59
2023-04-29T05:13:57.426Z,992.60
2023-04-29T05:14:57.343Z,992.59
2023-04-29T05:15:57.385Z,992.67
2023-04-29T05:16:57.893Z,992.67
2023-04-29T05:17:57.204Z,992.69
2023-04-29T05:18:57.134Z,992.70
2023-04-29T05:19:57.052Z,992.72
2023-04-29T05:20:56.974Z,992.69
2023-04-29T05:21:56.914Z,992.69
2023-04-29T05:22:56.872Z,992.70
2023-04-29T05:23:56.799Z,992.73
2023-04-29T05:24:56.817Z,992.74
2023-04-29T05:25:56.671Z,992.76
2023-04-29T05:26:56.630Z,992.76
2023-04-29T05:27:56.550Z,992.76
2023-04-29T05:29:33.224Z,992.85
2023-04-29T05:29:56.454Z,992.85
2023-04-29T05:30:56.438Z,992.88
2023-04-29T05:31:56.268Z,992.91
2023-04-29T05:32:56.328Z,992.94
2023-04-29T05:33:56.191Z,992.95
2023-04-29T05:34:56.129Z,992.94
2023-04-29T05:35:56.062Z,992.95
2023-04-29T05:36:55.945Z,993.00
2023-04-29T05:37:55.909Z,992.98
2023-04-29T05:38:55.819Z,993.02
2023-04-29T05:39:55.784Z,992.99
2023-04-29T05:40:55.744Z,993.00
2023-04-29T05:41:55.657Z,993.04
2023-04-29T05:42:55.570Z,993.07
2023-04-29T05:43:55.539Z,993.06
2023-04-29T05:44:55.465Z,993.07
2023-04-29T05:45:55.461Z,993.03
2023-04-29T05:47:30.237Z,993.12
2023-04-29T05:47:55.347Z,993.14
2023-04-29T05:48:55.245Z,993.12
2023-04-29T05:49:55.269Z,993.15
2023-04-29T05:50:55.111Z,993.12
2023-04-29T05:51:55.099Z,993.14
2023-04-29T05:52:55.626Z,993.12
2023-04-29T05:53:54.898Z,993.15
2023-04-29T05:54:54.834Z,993.10
2023-04-29T05:55:54.749Z,993.14
2023-04-29T05:56:54.692Z,993.14
2023-04-29T05:57:54.659Z,993.18
2023-04-29T05:58:54.618Z,993.18
2023-04-29T05:59:54.725Z,993.26
2023-04-29T06:00:54.467Z,993.24
2023-04-29T06:01:54.399Z,993.25
2023-04-29T06:02:58.670Z,993.28
2023-04-29T06:03:54.413Z,993.28
2023-04-29T06:06:03.452Z,993.26
2023-04-29T06:07:04.338Z,993.41
2023-04-29T06:08:04.253Z,993.35
2023-04-29T06:09:08.443Z,993.37
2023-04-29T06:10:04.156Z,993.38
2023-04-29T06:11:04.314Z,993.38
2023-04-29T06:12:04.008Z,993.40
2023-04-29T06:13:03.954Z,993.42
2023-04-29T06:14:03.835Z,993.44
2023-04-29T06:15:03.779Z,993.45
2023-04-29T06:16:03.785Z,993.50
2023-04-29T06:17:03.703Z,993.48
2023-04-29T06:18:03.681Z,993.50
2023-04-29T06:19:03.514Z,993.53
2023-04-29T06:20:03.463Z,993.51
2023-04-29T06:21:03.474Z,993.54
2023-04-29T06:22:03.396Z,993.57
2023-04-29T06:23:03.349Z,993.53
2023-04-29T06:24:03.236Z,993.57
2023-04-29T06:25:03.153Z,993.59
2023-04-29T06:26:03.150Z,993.60
2023-04-29T06:27:03.044Z,993.63
2023-04-29T06:28:03.686Z,993.64
2023-04-29T06:29:02.968Z,993.68
2023-04-29T06:30:02.862Z,993.71
2023-04-29T06:31:02.822Z,993.71
2023-04-29T06:32:02.784Z,993.74
2023-04-29T06:33:02.695Z,993.70
2023-04-29T06:34:02.659Z,993.77
2023-04-29T06:35:02.584Z,993.77
2023-04-29T06:36:02.487Z,993.79
2023-04-29T06:37:02.410Z,993.81
2023-04-29T06:38:02.320Z,993.84
2023-04-29T06:39:02.371Z,993.83
2023-04-29T06:40:02.195Z,993.83
2023-04-29T06:41:02.174Z,993.87
2023-04-29T06:42:02.094Z,993.81
2023-04-29T06:43:02.071Z,993.87
2023-04-29T06:44:01.944Z,993.87
2023-04-29T06:45:01.961Z,993.88
2023-04-29T06:46:01.868Z,993.90
2023-04-29T06:47:01.899Z,993.90
2023-04-29T06:48:01.746Z,993.91
2023-04-29T06:49:01.666Z,993.89
2023-04-29T06:50:01.592Z,993.92
2023-04-29T06:51:01.551Z,993.98
2023-04-29T06:52:01.464Z,993.96
2023-04-29T06:53:01.420Z,993.98
2023-04-29T06:54:01.316Z,993.97
2023-04-29T06:55:01.297Z,993.98
2023-04-29T06:56:01.243Z,994.03
2023-04-29T06:57:01.194Z,994.01
2023-04-29T06:58:01.078Z,994.01
2023-04-29T06:59:18.405Z,994.03
2023-04-29T07:00:00.961Z,994.06
2023-04-29T07:01:00.942Z,994.07
2023-04-29T07:02:00.861Z,994.09
2023-04-29T07:03:00.895Z,994.12
2023-04-29T07:04:00.802Z,994.07
2023-04-29T07:05:00.678Z,994.14
2023-04-29T07:06:00.602Z,994.12
2023-04-29T07:07:00.514Z,994.13
2023-04-29T07:08:00.520Z,994.16
2023-04-29T07:09:00.418Z,994.20
2023-04-29T07:10:00.306Z,994.18
2023-04-29T07:11:00.356Z,994.21
2023-04-29T07:12:00.213Z,994.20
2023-04-29T07:13:00.149Z,994.27
2023-04-29T07:14:00.134Z,994.29
2023-04-29T07:15:00.037Z,994.29
2023-04-29T07:15:59.943Z,994.31
2023-04-29T07:16:59.931Z,994.30
2023-04-29T07:17:59.878Z,994.32
2023-04-29T07:18:59.764Z,994.35
2023-04-29T07:19:59.701Z,994.39
2023-04-29T07:20:59.662Z,994.43
2023-04-29T07:21:59.565Z,994.47
2023-04-29T07:22:59.496Z,994.49
2023-04-29T07:23:59.449Z,994.47
2023-04-29T07:24:59.378Z,994.52
2023-04-29T07:25:59.381Z,994.53
2023-04-29T07:26:59.267Z,994.55
2023-04-29T07:28:00.204Z,994.57
2023-04-29T07:28:59.144Z,994.60
2023-04-29T07:29:59.092Z,994.62
2023-04-29T07:30:59.034Z,994.63
2023-04-29T07:31:58.941Z,994.59
2023-04-29T07:32:58.955Z,994.62
2023-04-29T07:33:58.792Z,994.67
2023-04-29T07:34:58.772Z,994.69
2023-04-29T07:35:58.686Z,994.66
2023-04-29T07:36:58.606Z,994.63
2023-04-29T07:37:58.611Z,994.70
2023-04-29T07:38:58.472Z,994.70
2023-04-29T07:39:58.432Z,994.71
2023-04-29T07:40:58.390Z,994.75
2023-04-29T07:41:58.297Z,994.76
2023-04-29T07:42:58.218Z,994.80
2023-04-29T07:43:58.159Z,994.80
2023-04-29T07:44:58.144Z,994.79
2023-04-29T07:45:58.054Z,994.84
2023-04-29T07:46:58.005Z,994.86
2023-04-29T07:47:57.925Z,994.83
2023-04-29T07:48:57.895Z,994.87
2023-04-29T07:49:57.839Z,994.90
2023-04-29T07:50:57.715Z,994.89
2023-04-29T07:51:57.715Z,994.91
2023-04-29T07:52:57.628Z,994.89
2023-04-29T07:53:57.524Z,994.93
2023-04-29T07:54:57.486Z,994.93
2023-04-29T07:55:57.451Z,994.94
2023-04-29T07:56:57.397Z,994.96
2023-04-29T07:57:58.834Z,995.00
2023-04-29T07:58:57.252Z,994.96
2023-04-29T07:59:57.170Z,994.99
2023-04-29T08:00:57.132Z,995.03
2023-04-29T08:01:57.040Z,994.98
2023-04-29T08:02:57.116Z,994.95
2023-04-29T08:03:57.095Z,995.00
2023-04-29T08:04:57.317Z,994.99
2023-04-29T08:05:56.810Z,994.99
2023-04-29T08:06:56.732Z,995.04
2023-04-29T08:07:56.666Z,995.06
2023-04-29T08:08:56.626Z,995.03
2023-04-29T08:09:56.524Z,995.06
2023-04-29T08:11:13.913Z,995.09
2023-04-29T08:11:56.419Z,995.14
2023-04-29T08:12:56.349Z,995.14
2023-04-29T08:13:56.296Z,995.17
2023-04-29T08:14:56.226Z,995.15
2023-04-29T08:15:56.208Z,995.24
2023-04-29T08:16:56.407Z,995.18
2023-04-29T08:17:56.056Z,995.20
2023-04-29T08:18:55.943Z,995.24
2023-04-29T08:19:55.884Z,995.18
2023-04-29T08:20:55.827Z,995.25
2023-04-29T08:21:55.806Z,995.20
2023-04-29T08:23:16.697Z,995.24
2023-04-29T08:23:55.651Z,995.25
2023-04-29T08:24:55.933Z,995.25
2023-04-29T08:25:55.566Z,995.28
2023-04-29T08:26:55.439Z,995.28
2023-04-29T08:27:55.377Z,995.32
2023-04-29T08:29:12.751Z,995.29
2023-04-29T08:29:55.256Z,995.28
2023-04-29T08:30:55.249Z,995.30
2023-04-29T08:31:55.270Z,995.28
2023-04-29T08:32:55.105Z,995.30
2023-04-29T08:33:55.035Z,995.33
2023-04-29T08:34:55.214Z,995.32
2023-04-29T08:35:55.015Z,995.34
2023-04-29T08:36:54.863Z,995.35
2023-04-29T08:37:54.796Z,995.38
2023-04-29T08:38:54.690Z,995.34
2023-04-29T08:39:54.617Z,995.39
2023-04-29T08:40:54.599Z,995.43
2023-04-29T08:41:54.525Z,995.40
2023-04-29T08:42:54.475Z,995.38
2023-04-29T08:43:54.388Z,995.36
2023-04-29T08:44:54.570Z,995.37
2023-04-29T08:45:54.296Z,995.40
2023-04-29T08:47:11.564Z,995.38
2023-04-29T08:47:54.220Z,995.46
2023-04-29T08:48:54.299Z,995.42
2023-04-29T08:49:54.033Z,995.42
2023-04-29T08:50:53.919Z,995.38
2023-04-29T08:51:53.864Z,995.42
2023-04-29T08:52:53.831Z,995.39
2023-04-29T08:53:53.732Z,995.41
2023-04-29T08:54:53.856Z,995.43
2023-04-29T08:55:53.665Z,995.42
2023-04-29T08:56:53.568Z,995.40
2023-04-29T08:57:53.539Z,995.43
2023-04-29T08:58:53.466Z,995.43
2023-04-29T08:59:53.364Z,995.43
2023-04-29T09:00:53.435Z,995.47
2023-04-29T09:01:53.288Z,995.49
2023-04-29T09:02:53.236Z,995.49
2023-04-29T09:03:53.378Z,995.53
2023-04-29T09:07:31.333Z,995.57
2023-04-29T09:08:32.304Z,995.60
2023-04-29T09:09:32.247Z,995.59
2023-04-29T09:10:32.187Z,995.59
2023-04-29T09:11:32.110Z,995.62
2023-04-29T09:12:32.030Z,995.64
2023-04-29T09:13:31.971Z,995.60
2023-04-29T09:14:31.884Z,995.59
2023-04-29T09:15:31.874Z,995.60
2023-04-29T09:16:31.801Z,995.54
2023-04-29T09:17:31.760Z,995.61
2023-04-29T09:18:31.657Z,995.59
2023-04-29T09:19:31.585Z,995.66
2023-04-29T09:20:31.533Z,995.68
2023-04-29T09:21:31.469Z,995.68
2023-04-29T09:22:31.374Z,995.67
2023-04-29T09:23:31.374Z,995.65
2023-04-29T09:24:31.274Z,995.65
2023-04-29T09:25:31.218Z,995.67
2023-04-29T09:26:31.136Z,995.70
2023-04-29T09:27:31.066Z,995.69
2023-04-29T09:28:31.070Z,995.65
2023-04-29T09:29:30.997Z,995.70
2023-04-29T09:30:30.897Z,995.73
2023-04-29T09:31:30.880Z,995.76
2023-04-29T09:32:30.756Z,995.76
2023-04-29T09:33:30.758Z,995.78
2023-04-29T09:34:30.671Z,995.78
2023-04-29T09:35:30.631Z,995.80
2023-04-29T09:36:30.496Z,995.80
2023-04-29T09:37:30.461Z,995.78
2023-04-29T09:38:30.398Z,995.77
2023-04-29T09:39:30.331Z,995.78
2023-04-29T09:40:30.284Z,995.79
2023-04-29T09:41:30.216Z,995.86
2023-04-29T09:42:30.144Z,995.87
2023-04-29T09:43:30.092Z,995.90
2023-04-29T09:44:32.923Z,995.92
2023-04-29T09:45:30.024Z,995.96
2023-04-29T09:46:30.079Z,995.99
2023-04-29T09:47:29.834Z,995.95
2023-04-29T09:48:29.772Z,995.98
2023-04-29T09:49:29.680Z,996.01
2023-04-29T09:50:29.645Z,996.06
2023-04-29T09:51:29.610Z,996.09
2023-04-29T09:52:29.512Z,996.10
2023-04-29T09:53:29.467Z,996.11
2023-04-29T09:54:29.376Z,996.14
2023-04-29T09:55:29.296Z,996.13
2023-04-29T09:56:29.242Z,996.08
2023-04-29T09:57:29.201Z,996.10
2023-04-29T09:58:29.105Z,996.12
2023-04-29T10:01:37.900Z,996.11
2023-04-29T10:02:38.886Z,996.16
2023-04-29T10:03:39.396Z,996.18
2023-04-29T10:04:40.059Z,996.21
2023-04-29T10:05:38.672Z,996.20
2023-04-29T10:06:38.587Z,996.21
2023-04-29T10:07:38.526Z,996.23
2023-04-29T10:08:38.465Z,996.22
2023-04-29T10:09:38.399Z,996.22
2023-04-29T10:10:38.287Z,996.23
2023-04-29T10:11:38.239Z,996.21
2023-04-29T10:12:38.183Z,996.26
2023-04-29T10:13:38.157Z,996.29
2023-04-29T10:14:38.099Z,996.29
2023-04-29T10:15:38.024Z,996.26
2023-04-29T10:16:38.246Z,996.26
2023-04-29T10:17:37.857Z,996.30
2023-04-29T10:18:38.104Z,996.31
2023-04-29T10:19:37.743Z,996.33
2023-04-29T10:20:37.680Z,996.30
2023-04-29T10:21:37.626Z,996.30
2023-04-29T10:22:37.566Z,996.32
2023-04-29T10:23:37.798Z,996.22
2023-04-29T10:24:37.472Z,996.28
2023-04-29T10:25:37.368Z,996.27
2023-04-29T10:26:37.325Z,996.32
2023-04-29T10:27:37.241Z,996.30
2023-04-29T10:28:37.169Z,996.32
2023-04-29T10:29:37.121Z,996.35
2023-04-29T10:30:37.057Z,996.39
2023-04-29T10:31:37.011Z,996.40
2023-04-29T10:32:49.882Z,996.39
2023-04-29T10:33:36.947Z,996.41
2023-04-29T10:34:36.803Z,996.45
2023-04-29T10:35:57.725Z,996.46
2023-04-29T10:36:36.672Z,996.48
2023-04-29T10:37:36.613Z,996.52
2023-04-29T10:38:36.571Z,996.49
2023-04-29T10:39:36.488Z,996.51
2023-04-29T10:40:36.465Z,996.51
2023-04-29T10:41:36.392Z,996.52
2023-04-29T10:42:36.297Z,996.48
2023-04-29T10:43:36.270Z,996.46
2023-04-29T10:44:36.170Z,996.52
2023-04-29T10:45:36.311Z,996.51
2023-04-29T10:46:36.064Z,996.50
2023-04-29T10:47:35.994Z,996.51
2023-04-29T10:48:35.953Z,996.51
2023-04-29T10:49:35.862Z,996.54
2023-04-29T10:50:35.801Z,996.53
2023-04-29T10:51:35.705Z,996.55
2023-04-29T10:52:35.712Z,996.50
2023-04-29T10:53:35.678Z,996.57
2023-04-29T10:54:35.537Z,996.52
2023-04-29T10:55:35.546Z,996.57
2023-04-29T10:56:35.413Z,996.60
2023-04-29T10:57:35.381Z,996.58
2023-04-29T10:58:35.271Z,996.61
2023-04-29T10:59:35.253Z,996.64
2023-04-29T11:00:35.133Z,996.64
2023-04-29T11:01:35.149Z,996.69
2023-04-29T11:02:35.049Z,996.69
2023-04-29T11:03:35.060Z,996.64
2023-04-29T11:04:34.932Z,996.67
2023-04-29T11:05:34.913Z,996.68
2023-04-29T11:06:34.786Z,996.64
2023-04-29T11:07:34.748Z,996.67
2023-04-29T11:08:34.659Z,996.69
2023-04-29T11:09:34.623Z,996.68
2023-04-29T11:10:34.571Z,996.68
2023-04-29T11:12:44.854Z,996.70
2023-04-29T11:13:44.554Z,996.71
2023-04-29T11:14:44.507Z,996.76
2023-04-29T11:15:44.436Z,996.73
2023-04-29T11:16:44.439Z,996.74
2023-04-29T11:17:44.366Z,996.76
2023-04-29T11:18:44.288Z,996.80
2023-04-29T11:19:44.212Z,996.80
2023-04-29T11:20:44.135Z,996.78
2023-04-29T11:21:44.080Z,996.80
2023-04-29T11:22:43.991Z,996.79
2023-04-29T11:23:43.994Z,996.77
2023-04-29T11:24:43.885Z,996.74
2023-04-29T11:25:43.854Z,996.78
2023-04-29T11:26:43.729Z,996.78
2023-04-29T11:27:43.700Z,996.74
2023-04-29T11:28:43.608Z,996.77
2023-04-29T11:29:43.598Z,996.84
2023-04-29T11:30:43.534Z,996.76
2023-04-29T11:31:43.470Z,996.74
2023-04-29T11:32:43.494Z,996.74
2023-04-29T11:33:43.352Z,996.76
2023-04-29T11:34:43.337Z,996.78
2023-04-29T11:35:43.236Z,996.70
2023-04-29T11:36:43.138Z,996.74
2023-04-29T11:37:43.103Z,996.73
2023-04-29T11:38:42.977Z,996.76
2023-04-29T11:39:42.959Z,996.77
2023-04-29T11:40:42.876Z,996.78
2023-04-29T11:41:42.876Z,996.82
2023-04-29T11:42:42.750Z,996.82
2023-04-29T11:43:42.687Z,996.79
2023-04-29T11:44:42.596Z,996.82
2023-04-29T11:45:42.602Z,996.84
2023-04-29T11:46:42.524Z,996.81
2023-04-29T11:47:42.454Z,996.83
2023-04-29T11:48:42.377Z,996.90
2023-04-29T11:49:42.279Z,996.87
2023-04-29T11:50:42.232Z,996.89
2023-04-29T11:51:42.196Z,996.89
2023-04-29T11:52:42.121Z,996.90
2023-04-29T11:53:42.074Z,996.94
2023-04-29T11:54:42.003Z,996.93
2023-04-29T11:55:41.932Z,996.93
2023-04-29T11:56:41.870Z,996.95
2023-04-29T11:57:41.904Z,996.98
2023-04-29T11:58:41.729Z,996.99
2023-04-29T11:59:41.959Z,996.97
2023-04-29T12:00:41.596Z,996.98
2023-04-29T12:01:41.554Z,997.01
2023-04-29T12:02:41.530Z,997.03
2023-04-29T12:03:41.746Z,997.02
2023-04-29T12:04:41.458Z,997.07
2023-04-29T12:06:02.299Z,997.08
2023-04-29T12:06:41.252Z,997.10
2023-04-29T12:07:41.261Z,997.07
2023-04-29T12:08:41.131Z,997.07
2023-04-29T12:09:41.084Z,997.13
2023-04-29T12:10:40.959Z,997.05
2023-04-29T12:11:40.944Z,997.06
2023-04-29T12:12:41.121Z,997.06
2023-04-29T12:13:40.825Z,997.04
2023-04-29T12:14:40.741Z,997.06
2023-04-29T12:15:40.680Z,997.08
2023-04-29T12:16:40.608Z,997.04
2023-04-29T12:17:40.581Z,997.09
2023-04-29T12:18:40.502Z,997.08
2023-04-29T12:19:40.424Z,997.11
2023-04-29T12:20:40.388Z,997.04
2023-04-29T12:21:40.273Z,997.13
2023-04-29T12:22:40.220Z,997.14
2023-04-29T12:23:40.186Z,997.14
2023-04-29T12:24:40.103Z,997.15
2023-04-29T12:25:40.057Z,997.14
2023-04-29T12:26:40.017Z,997.15
2023-04-29T12:27:39.951Z,997.18
2023-04-29T12:28:39.830Z,997.17
2023-04-29T12:29:40.070Z,997.16
2023-04-29T12:30:39.714Z,997.12
2023-04-29T12:31:39.719Z,997.17
2023-04-29T12:32:39.596Z,997.22
2023-04-29T12:33:39.578Z,997.17
2023-04-29T12:34:39.480Z,997.17
2023-04-29T12:35:39.426Z,997.13
2023-04-29T12:36:39.352Z,997.20
2023-04-29T12:37:39.262Z,997.21
2023-04-29T12:38:39.254Z,997.24